Germfask, Michigan
Current Conditions -  °F | °C
As of 1:15 PM on Monday 22 Dec 2014 (Local Time) from KISQ Reporting Station
Overcast Overcast  
Wind Chill: 25°   Ceiling: 1500
Heat Index: 34°   Visibility: 7mi
Dew Point: 31°   Wind: 13mph
Humidity: 90%   Direction: 140°SE
Pressure: 29.94"   Gusts: 18mph
Location:  46.25°N, 85.93°W
Report Text: KISQ 221815Z AUTO 14011G16KT 7SM BKN015 OVC042 01/00 A2994 RMK AO2 T00121003
Loading
Personal Weather Stations






























Interactive Weather Map New forecast layout! Learn more

10-Day Weather Forecast

Advertisements
Track Severe Weather on mobile